sensor_id;sensor_type;location;lat;lon;timestamp;temperature;humidity
23120;DHT22;11729;50.836;4.330;2023-02-12T00:01:48;10.50;99.90
23120;DHT22;11729;50.836;4.330;2023-02-12T00:04:13;10.40;99.90
23120;DHT22;11729;50.836;4.330;2023-02-12T00:06:40;10.30;99.90
23120;DHT22;11729;50.836;4.330;2023-02-12T00:09:06;10.20;99.90
23120;DHT22;11729;50.836;4.330;2023-02-12T00:11:32;10.10;99.90
23120;DHT22;11729;50.836;4.330;2023-02-12T00:13:58;10.10;99.90
23120;DHT22;11729;50.836;4.330;2023-02-12T00:16:27;10.20;99.90
23120;DHT22;11729;50.836;4.330;2023-02-12T00:18:55;10.30;99.90
23120;DHT22;11729;50.836;4.330;2023-02-12T00:21:23;10.30;99.90
23120;DHT22;11729;50.836;4.330;2023-02-12T00:23:49;10.30;99.90
23120;DHT22;11729;50.836;4.330;2023-02-12T00:26:16;10.30;99.90
23120;DHT22;11729;50.836;4.330;2023-02-12T00:28:42;10.50;99.90
23120;DHT22;11729;50.836;4.330;2023-02-12T00:31:14;10.30;99.90
23120;DHT22;11729;50.836;4.330;2023-02-12T00:33:40;10.40;99.90
23120;DHT22;11729;50.836;4.330;2023-02-12T00:36:06;10.30;99.90
23120;DHT22;11729;50.836;4.330;2023-02-12T00:38:33;10.20;99.90
23120;DHT22;11729;50.836;4.330;2023-02-12T00:40:59;10.20;99.90
23120;DHT22;11729;50.836;4.330;2023-02-12T00:43:24;10.10;99.90
23120;DHT22;11729;50.836;4.330;2023-02-12T00:45:50;10.20;99.90
23120;DHT22;11729;50.836;4.330;2023-02-12T00:48:16;10.20;99.90
23120;DHT22;11729;50.836;4.330;2023-02-12T00:50:44;10.20;99.90
23120;DHT22;11729;50.836;4.330;2023-02-12T00:53:10;10.20;99.90
23120;DHT22;11729;50.836;4.330;2023-02-12T00:55:35;10.00;99.90
23120;DHT22;11729;50.836;4.330;2023-02-12T00:58:01;9.80;99.90
23120;DHT22;11729;50.836;4.330;2023-02-12T01:00:27;9.90;99.90
23120;DHT22;11729;50.836;4.330;2023-02-12T01:02:52;10.00;99.90
23120;DHT22;11729;50.836;4.330;2023-02-12T01:05:18;10.10;99.90
23120;DHT22;11729;50.836;4.330;2023-02-12T01:07:49;10.10;99.90
23120;DHT22;11729;50.836;4.330;2023-02-12T01:10:15;10.10;99.90
23120;DHT22;11729;50.836;4.330;2023-02-12T01:12:41;10.00;99.90
23120;DHT22;11729;50.836;4.330;2023-02-12T01:15:07;9.90;99.90
23120;DHT22;11729;50.836;4.330;2023-02-12T01:17:35;10.00;99.90
23120;DHT22;11729;50.836;4.330;2023-02-12T01:20:01;10.00;99.90
23120;DHT22;11729;50.836;4.330;2023-02-12T01:22:27;10.00;99.90
23120;DHT22;11729;50.836;4.330;2023-02-12T01:24:52;10.00;99.90
23120;DHT22;11729;50.836;4.330;2023-02-12T01:27:18;10.10;99.90
23120;DHT22;11729;50.836;4.330;2023-02-12T01:29:44;10.10;99.90
23120;DHT22;11729;50.836;4.330;2023-02-12T01:32:10;10.10;99.90
23120;DHT22;11729;50.836;4.330;2023-02-12T01:34:36;10.00;99.90
23120;DHT22;11729;50.836;4.330;2023-02-12T01:37:02;10.00;99.90
23120;DHT22;11729;50.836;4.330;2023-02-12T01:39:28;10.20;99.90
23120;DHT22;11729;50.836;4.330;2023-02-12T01:41:53;10.20;99.90
23120;DHT22;11729;50.836;4.330;2023-02-12T01:44:24;10.00;99.90
23120;DHT22;11729;50.836;4.330;2023-02-12T01:46:58;10.00;99.90
23120;DHT22;11729;50.836;4.330;2023-02-12T01:49:29;10.10;99.90
23120;DHT22;11729;50.836;4.330;2023-02-12T01:52:05;10.10;99.90
23120;DHT22;11729;50.836;4.330;2023-02-12T01:54:34;10.20;99.90
23120;DHT22;11729;50.836;4.330;2023-02-12T01:57:02;10.20;99.90
23120;DHT22;11729;50.836;4.330;2023-02-12T01:59:29;10.20;99.90
23120;DHT22;11729;50.836;4.330;2023-02-12T02:01:55;10.30;99.90
23120;DHT22;11729;50.836;4.330;2023-02-12T02:04:24;10.30;99.90
23120;DHT22;11729;50.836;4.330;2023-02-12T02:07:00;10.10;99.90
23120;DHT22;11729;50.836;4.330;2023-02-12T02:09:26;10.10;99.90
23120;DHT22;11729;50.836;4.330;2023-02-12T02:11:53;10.20;99.90
23120;DHT22;11729;50.836;4.330;2023-02-12T02:14:38;10.30;99.90
23120;DHT22;11729;50.836;4.330;2023-02-12T02:27:48;10.20;99.90
23120;DHT22;11729;50.836;4.330;2023-02-12T02:35:40;10.20;99.90
23120;DHT22;11729;50.836;4.330;2023-02-12T02:38:33;10.00;99.90
23120;DHT22;11729;50.836;4.330;2023-02-12T02:43:50;10.10;99.90
23120;DHT22;11729;50.836;4.330;2023-02-12T02:49:16;10.10;99.90
23120;DHT22;11729;50.836;4.330;2023-02-12T02:51:48;10.20;99.90
23120;DHT22;11729;50.836;4.330;2023-02-12T02:54:44;10.20;99.90
23120;DHT22;11729;50.836;4.330;2023-02-12T02:57:18;10.10;99.90
23120;DHT22;11729;50.836;4.330;2023-02-12T02:59:51;10.00;99.90
23120;DHT22;11729;50.836;4.330;2023-02-12T03:02:31;9.90;99.90
23120;DHT22;11729;50.836;4.330;2023-02-12T03:05:02;9.80;99.90
23120;DHT22;11729;50.836;4.330;2023-02-12T03:07:40;9.80;99.90
23120;DHT22;11729;50.836;4.330;2023-02-12T03:10:09;9.90;99.90
23120;DHT22;11729;50.836;4.330;2023-02-12T03:15:09;10.10;99.90
23120;DHT22;11729;50.836;4.330;2023-02-12T03:17:43;10.20;99.90
23120;DHT22;11729;50.836;4.330;2023-02-12T03:20:21;10.20;99.90
23120;DHT22;11729;50.836;4.330;2023-02-12T03:22:56;10.10;99.90
23120;DHT22;11729;50.836;4.330;2023-02-12T03:25:30;10.00;99.90
23120;DHT22;11729;50.836;4.330;2023-02-12T03:28:08;10.00;99.90
23120;DHT22;11729;50.836;4.330;2023-02-12T03:31:11;10.00;99.90
23120;DHT22;11729;50.836;4.330;2023-02-12T03:36:32;9.80;99.90
23120;DHT22;11729;50.836;4.330;2023-02-12T03:41:52;10.00;99.90
23120;DHT22;11729;50.836;4.330;2023-02-12T03:47:38;10.00;99.90
23120;DHT22;11729;50.836;4.330;2023-02-12T03:52:57;10.10;99.90
23120;DHT22;11729;50.836;4.330;2023-02-12T03:55:23;10.10;99.90
23120;DHT22;11729;50.836;4.330;2023-02-12T03:57:54;10.20;99.90
23120;DHT22;11729;50.836;4.330;2023-02-12T04:00:24;10.20;99.90
23120;DHT22;11729;50.836;4.330;2023-02-12T04:02:50;10.10;99.90
23120;DHT22;11729;50.836;4.330;2023-02-12T04:05:22;10.10;99.90
23120;DHT22;11729;50.836;4.330;2023-02-12T04:07:49;10.00;99.90
23120;DHT22;11729;50.836;4.330;2023-02-12T04:10:16;10.20;99.90
23120;DHT22;11729;50.836;4.330;2023-02-12T04:12:52;10.10;99.90
23120;DHT22;11729;50.836;4.330;2023-02-12T04:15:56;10.10;99.90
23120;DHT22;11729;50.836;4.330;2023-02-12T04:18:41;10.10;99.90
23120;DHT22;11729;50.836;4.330;2023-02-12T04:21:35;10.20;99.90
23120;DHT22;11729;50.836;4.330;2023-02-12T04:27:10;10.20;99.90
23120;DHT22;11729;50.836;4.330;2023-02-12T04:29:53;10.00;99.90
23120;DHT22;11729;50.836;4.330;2023-02-12T04:35:04;10.00;99.90
23120;DHT22;11729;50.836;4.330;2023-02-12T04:37:43;9.90;99.90
23120;DHT22;11729;50.836;4.330;2023-02-12T04:40:16;10.10;99.90
23120;DHT22;11729;50.836;4.330;2023-02-12T04:42:43;10.00;99.90
23120;DHT22;11729;50.836;4.330;2023-02-12T04:45:11;10.00;99.90
23120;DHT22;11729;50.836;4.330;2023-02-12T04:47:37;10.00;99.90
23120;DHT22;11729;50.836;4.330;2023-02-12T04:50:03;10.00;99.90
23120;DHT22;11729;50.836;4.330;2023-02-12T04:52:29;9.90;99.90
23120;DHT22;11729;50.836;4.330;2023-02-12T04:54:54;9.90;99.90
23120;DHT22;11729;50.836;4.330;2023-02-12T04:57:20;9.80;99.90
23120;DHT22;11729;50.836;4.330;2023-02-12T04:59:46;9.80;99.90
23120;DHT22;11729;50.836;4.330;2023-02-12T05:02:11;9.80;99.90
23120;DHT22;11729;50.836;4.330;2023-02-12T05:04:37;9.80;99.90
23120;DHT22;11729;50.836;4.330;2023-02-12T05:07:02;9.80;99.90
23120;DHT22;11729;50.836;4.330;2023-02-12T05:09:28;9.70;99.90
23120;DHT22;11729;50.836;4.330;2023-02-12T05:11:54;9.70;99.90
23120;DHT22;11729;50.836;4.330;2023-02-12T05:14:19;9.80;99.90
23120;DHT22;11729;50.836;4.330;2023-02-12T05:16:45;9.80;99.90
23120;DHT22;11729;50.836;4.330;2023-02-12T05:19:11;9.80;99.90
23120;DHT22;11729;50.836;4.330;2023-02-12T05:21:37;9.90;99.90
23120;DHT22;11729;50.836;4.330;2023-02-12T05:24:03;9.90;99.90
23120;DHT22;11729;50.836;4.330;2023-02-12T05:26:29;9.80;99.90
23120;DHT22;11729;50.836;4.330;2023-02-12T05:28:55;9.90;99.90
23120;DHT22;11729;50.836;4.330;2023-02-12T05:31:20;9.90;99.90
23120;DHT22;11729;50.836;4.330;2023-02-12T05:33:47;9.80;99.90
23120;DHT22;11729;50.836;4.330;2023-02-12T05:36:17;9.80;99.90
23120;DHT22;11729;50.836;4.330;2023-02-12T05:38:43;9.90;99.90
23120;DHT22;11729;50.836;4.330;2023-02-12T05:41:15;9.90;99.90
23120;DHT22;11729;50.836;4.330;2023-02-12T05:43:41;9.90;99.90
23120;DHT22;11729;50.836;4.330;2023-02-12T05:46:08;9.80;99.90
23120;DHT22;11729;50.836;4.330;2023-02-12T05:48:34;9.80;99.90
23120;DHT22;11729;50.836;4.330;2023-02-12T05:53:30;9.70;99.90
23120;DHT22;11729;50.836;4.330;2023-02-12T05:56:27;9.60;99.90
23120;DHT22;11729;50.836;4.330;2023-02-12T05:58:53;9.50;99.90
23120;DHT22;11729;50.836;4.330;2023-02-12T06:01:23;9.50;99.90
23120;DHT22;11729;50.836;4.330;2023-02-12T06:03:49;9.50;99.90
23120;DHT22;11729;50.836;4.330;2023-02-12T06:06:14;9.60;99.90
23120;DHT22;11729;50.836;4.330;2023-02-12T06:08:40;9.70;99.90
23120;DHT22;11729;50.836;4.330;2023-02-12T06:11:09;9.70;99.90
23120;DHT22;11729;50.836;4.330;2023-02-12T06:13:37;9.70;99.90
23120;DHT22;11729;50.836;4.330;2023-02-12T06:16:03;9.80;99.90
23120;DHT22;11729;50.836;4.330;2023-02-12T06:18:28;9.80;99.90
23120;DHT22;11729;50.836;4.330;2023-02-12T06:20:54;9.80;99.90
23120;DHT22;11729;50.836;4.330;2023-02-12T06:23:21;9.80;99.90
23120;DHT22;11729;50.836;4.330;2023-02-12T06:25:48;9.80;99.90
23120;DHT22;11729;50.836;4.330;2023-02-12T06:28:14;9.80;99.90
23120;DHT22;11729;50.836;4.330;2023-02-12T06:30:39;9.90;99.90
23120;DHT22;11729;50.836;4.330;2023-02-12T06:33:05;9.80;99.90
23120;DHT22;11729;50.836;4.330;2023-02-12T06:35:34;9.90;99.90
23120;DHT22;11729;50.836;4.330;2023-02-12T06:38:03;9.90;99.90
23120;DHT22;11729;50.836;4.330;2023-02-12T06:40:31;9.80;99.90
23120;DHT22;11729;50.836;4.330;2023-02-12T06:42:58;9.80;99.90
23120;DHT22;11729;50.836;4.330;2023-02-12T06:45:24;9.70;99.90
23120;DHT22;11729;50.836;4.330;2023-02-12T06:47:50;10.10;99.90
23120;DHT22;11729;50.836;4.330;2023-02-12T06:50:16;10.30;99.90
23120;DHT22;11729;50.836;4.330;2023-02-12T06:52:43;10.30;99.90
23120;DHT22;11729;50.836;4.330;2023-02-12T06:55:09;10.10;99.90
23120;DHT22;11729;50.836;4.330;2023-02-12T06:57:35;10.00;99.90
23120;DHT22;11729;50.836;4.330;2023-02-12T07:00:01;10.00;99.90
23120;DHT22;11729;50.836;4.330;2023-02-12T07:02:26;9.90;99.90
23120;DHT22;11729;50.836;4.330;2023-02-12T07:04:52;9.80;99.90
23120;DHT22;11729;50.836;4.330;2023-02-12T07:07:18;9.80;99.90
23120;DHT22;11729;50.836;4.330;2023-02-12T07:09:43;9.80;99.90
23120;DHT22;11729;50.836;4.330;2023-02-12T07:12:09;9.70;99.90
23120;DHT22;11729;50.836;4.330;2023-02-12T07:14:35;9.90;99.90
23120;DHT22;11729;50.836;4.330;2023-02-12T07:17:00;9.90;99.90
23120;DHT22;11729;50.836;4.330;2023-02-12T07:19:28;9.90;99.90
23120;DHT22;11729;50.836;4.330;2023-02-12T07:21:54;10.10;99.90
23120;DHT22;11729;50.836;4.330;2023-02-12T07:24:21;10.10;99.90
23120;DHT22;11729;50.836;4.330;2023-02-12T07:26:48;10.10;99.90
23120;DHT22;11729;50.836;4.330;2023-02-12T07:29:14;10.10;99.90
23120;DHT22;11729;50.836;4.330;2023-02-12T07:31:40;10.20;99.90
23120;DHT22;11729;50.836;4.330;2023-02-12T07:34:05;10.20;99.90
23120;DHT22;11729;50.836;4.330;2023-02-12T07:36:31;10.30;99.90
23120;DHT22;11729;50.836;4.330;2023-02-12T07:38:58;10.20;99.90
23120;DHT22;11729;50.836;4.330;2023-02-12T07:41:25;10.20;99.90
23120;DHT22;11729;50.836;4.330;2023-02-12T07:43:58;10.30;99.90
23120;DHT22;11729;50.836;4.330;2023-02-12T07:46:29;10.20;99.90
23120;DHT22;11729;50.836;4.330;2023-02-12T07:49:00;10.20;99.90
23120;DHT22;11729;50.836;4.330;2023-02-12T07:51:27;10.20;99.90
23120;DHT22;11729;50.836;4.330;2023-02-12T07:53:53;10.20;99.90
23120;DHT22;11729;50.836;4.330;2023-02-12T07:56:24;10.20;99.90
23120;DHT22;11729;50.836;4.330;2023-02-12T07:58:53;10.30;99.90
23120;DHT22;11729;50.836;4.330;2023-02-12T08:01:29;10.40;99.90
23120;DHT22;11729;50.836;4.330;2023-02-12T08:04:10;10.40;99.90
23120;DHT22;11729;50.836;4.330;2023-02-12T08:06:41;10.40;99.90
23120;DHT22;11729;50.836;4.330;2023-02-12T08:09:10;10.40;99.90
23120;DHT22;11729;50.836;4.330;2023-02-12T08:11:37;10.40;99.90
23120;DHT22;11729;50.836;4.330;2023-02-12T08:14:03;10.40;99.90
23120;DHT22;11729;50.836;4.330;2023-02-12T08:16:29;10.40;99.90
23120;DHT22;11729;50.836;4.330;2023-02-12T08:18:56;10.30;99.90
23120;DHT22;11729;50.836;4.330;2023-02-12T08:21:25;10.20;99.90
23120;DHT22;11729;50.836;4.330;2023-02-12T08:23:52;10.20;99.90
23120;DHT22;11729;50.836;4.330;2023-02-12T08:26:23;10.20;99.90
23120;DHT22;11729;50.836;4.330;2023-02-12T08:28:55;10.30;99.90
23120;DHT22;11729;50.836;4.330;2023-02-12T08:31:24;10.30;99.90
23120;DHT22;11729;50.836;4.330;2023-02-12T08:33:51;10.40;99.90
23120;DHT22;11729;50.836;4.330;2023-02-12T08:36:20;10.40;99.90
23120;DHT22;11729;50.836;4.330;2023-02-12T08:38:47;10.30;99.90
23120;DHT22;11729;50.836;4.330;2023-02-12T08:41:18;10.50;99.90
23120;DHT22;11729;50.836;4.330;2023-02-12T08:43:44;10.40;99.90
23120;DHT22;11729;50.836;4.330;2023-02-12T08:46:12;10.40;99.90
23120;DHT22;11729;50.836;4.330;2023-02-12T08:48:39;10.60;99.90
23120;DHT22;11729;50.836;4.330;2023-02-12T08:51:08;10.80;99.90
23120;DHT22;11729;50.836;4.330;2023-02-12T08:53:36;11.00;99.90
23120;DHT22;11729;50.836;4.330;2023-02-12T08:56:03;10.90;99.90
23120;DHT22;11729;50.836;4.330;2023-02-12T08:58:29;10.90;99.90
23120;DHT22;11729;50.836;4.330;2023-02-12T09:00:55;10.90;99.90
23120;DHT22;11729;50.836;4.330;2023-02-12T09:03:21;11.00;99.90
23120;DHT22;11729;50.836;4.330;2023-02-12T09:05:47;11.00;99.90
23120;DHT22;11729;50.836;4.330;2023-02-12T09:08:13;10.80;99.90
23120;DHT22;11729;50.836;4.330;2023-02-12T09:10:43;10.70;99.90
23120;DHT22;11729;50.836;4.330;2023-02-12T09:13:11;10.80;99.90
23120;DHT22;11729;50.836;4.330;2023-02-12T09:15:38;10.80;99.90
23120;DHT22;11729;50.836;4.330;2023-02-12T09:18:04;10.70;99.90
23120;DHT22;11729;50.836;4.330;2023-02-12T09:20:32;10.80;99.90
23120;DHT22;11729;50.836;4.330;2023-02-12T09:22:59;10.90;99.90
23120;DHT22;11729;50.836;4.330;2023-02-12T09:25:25;11.20;99.90
23120;DHT22;11729;50.836;4.330;2023-02-12T09:27:50;11.20;99.90
23120;DHT22;11729;50.836;4.330;2023-02-12T09:30:16;11.20;99.90
23120;DHT22;11729;50.836;4.330;2023-02-12T09:32:42;11.10;99.90
23120;DHT22;11729;50.836;4.330;2023-02-12T09:35:08;11.20;99.90
23120;DHT22;11729;50.836;4.330;2023-02-12T09:37:35;11.20;99.90
23120;DHT22;11729;50.836;4.330;2023-02-12T09:40:01;11.30;99.90
23120;DHT22;11729;50.836;4.330;2023-02-12T09:42:44;11.40;99.90
23120;DHT22;11729;50.836;4.330;2023-02-12T09:50:53;11.30;99.90
23120;DHT22;11729;50.836;4.330;2023-02-12T09:53:25;11.20;99.90
23120;DHT22;11729;50.836;4.330;2023-02-12T09:55:53;11.30;99.90
23120;DHT22;11729;50.836;4.330;2023-02-12T09:58:35;11.40;99.90
23120;DHT22;11729;50.836;4.330;2023-02-12T10:01:11;11.40;99.90
23120;DHT22;11729;50.836;4.330;2023-02-12T10:03:38;11.60;99.90
23120;DHT22;11729;50.836;4.330;2023-02-12T10:06:10;11.60;99.90
23120;DHT22;11729;50.836;4.330;2023-02-12T10:08:53;11.60;99.90
23120;DHT22;11729;50.836;4.330;2023-02-12T10:11:28;11.40;99.90
23120;DHT22;11729;50.836;4.330;2023-02-12T10:27:38;10.30;99.90
23120;DHT22;11729;50.836;4.330;2023-02-12T10:31:02;10.00;99.90
23120;DHT22;11729;50.836;4.330;2023-02-12T10:35:55;9.60;99.90
23120;DHT22;11729;50.836;4.330;2023-02-12T10:38:35;9.70;99.90
23120;DHT22;11729;50.836;4.330;2023-02-12T10:41:02;9.60;99.90
23120;DHT22;11729;50.836;4.330;2023-02-12T10:43:28;9.70;99.90
23120;DHT22;11729;50.836;4.330;2023-02-12T10:45:55;9.80;99.90
23120;DHT22;11729;50.836;4.330;2023-02-12T10:48:24;9.80;99.90
23120;DHT22;11729;50.836;4.330;2023-02-12T10:51:10;9.60;99.90
23120;DHT22;11729;50.836;4.330;2023-02-12T10:53:43;9.60;99.90
23120;DHT22;11729;50.836;4.330;2023-02-12T10:56:19;9.80;99.90
23120;DHT22;11729;50.836;4.330;2023-02-12T10:58:55;10.20;99.90
23120;DHT22;11729;50.836;4.330;2023-02-12T11:01:28;10.50;99.90
23120;DHT22;11729;50.836;4.330;2023-02-12T11:03:56;10.80;99.90
23120;DHT22;11729;50.836;4.330;2023-02-12T11:06:28;10.90;99.90
23120;DHT22;11729;50.836;4.330;2023-02-12T11:08:55;11.00;99.90
23120;DHT22;11729;50.836;4.330;2023-02-12T11:19:09;11.40;99.90
23120;DHT22;11729;50.836;4.330;2023-02-12T11:21:43;11.10;99.90
23120;DHT22;11729;50.836;4.330;2023-02-12T11:24:31;11.30;99.90
23120;DHT22;11729;50.836;4.330;2023-02-12T11:29:44;11.20;99.90
23120;DHT22;11729;50.836;4.330;2023-02-12T11:32:19;11.20;99.90
23120;DHT22;11729;50.836;4.330;2023-02-12T11:37:43;11.40;99.90
23120;DHT22;11729;50.836;4.330;2023-02-12T11:40:22;11.50;99.90
23120;DHT22;11729;50.836;4.330;2023-02-12T11:42:49;11.50;99.90
23120;DHT22;11729;50.836;4.330;2023-02-12T11:45:19;11.30;99.90
23120;DHT22;11729;50.836;4.330;2023-02-12T11:47:47;11.60;99.90
23120;DHT22;11729;50.836;4.330;2023-02-12T11:50:28;11.60;99.90
23120;DHT22;11729;50.836;4.330;2023-02-12T11:53:05;11.80;99.90
23120;DHT22;11729;50.836;4.330;2023-02-12T11:55:39;11.80;99.90
23120;DHT22;11729;50.836;4.330;2023-02-12T11:58:23;12.00;99.90
23120;DHT22;11729;50.836;4.330;2023-02-12T12:03:53;11.80;99.90
23120;DHT22;11729;50.836;4.330;2023-02-12T12:09:06;12.10;99.90
23120;DHT22;11729;50.836;4.330;2023-02-12T12:15:14;12.10;99.90
23120;DHT22;11729;50.836;4.330;2023-02-12T12:17:50;11.80;99.90
23120;DHT22;11729;50.836;4.330;2023-02-12T12:20:42;12.00;99.90
23120;DHT22;11729;50.836;4.330;2023-02-12T12:23:31;12.00;99.90
23120;DHT22;11729;50.836;4.330;2023-02-12T12:26:29;12.20;99.90
23120;DHT22;11729;50.836;4.330;2023-02-12T12:31:30;11.60;99.90
23120;DHT22;11729;50.836;4.330;2023-02-12T12:34:11;11.70;99.90
23120;DHT22;11729;50.836;4.330;2023-02-12T12:58:08;11.60;99.90
23120;DHT22;11729;50.836;4.330;2023-02-12T13:17:54;11.10;99.90
23120;DHT22;11729;50.836;4.330;2023-02-12T13:26:03;11.60;99.90
23120;DHT22;11729;50.836;4.330;2023-02-12T13:28:41;11.70;99.90
23120;DHT22;11729;50.836;4.330;2023-02-12T13:31:16;11.80;99.90
23120;DHT22;11729;50.836;4.330;2023-02-12T13:33:48;11.60;99.90
23120;DHT22;11729;50.836;4.330;2023-02-12T13:36:15;11.20;99.90
23120;DHT22;11729;50.836;4.330;2023-02-12T13:41:10;11.60;99.90
23120;DHT22;11729;50.836;4.330;2023-02-12T13:49:35;11.50;99.90
23120;DHT22;11729;50.836;4.330;2023-02-12T13:52:16;11.10;99.90
23120;DHT22;11729;50.836;4.330;2023-02-12T13:54:54;11.40;99.90
23120;DHT22;11729;50.836;4.330;2023-02-12T13:57:20;11.40;99.90
23120;DHT22;11729;50.836;4.330;2023-02-12T13:59:51;11.40;99.90
23120;DHT22;11729;50.836;4.330;2023-02-12T14:05:13;11.20;99.90
23120;DHT22;11729;50.836;4.330;2023-02-12T14:07:45;11.30;99.90
23120;DHT22;11729;50.836;4.330;2023-02-12T14:12:49;11.40;99.90
23120;DHT22;11729;50.836;4.330;2023-02-12T14:15:32;11.20;99.90
23120;DHT22;11729;50.836;4.330;2023-02-12T14:18:22;11.40;99.90
23120;DHT22;11729;50.836;4.330;2023-02-12T14:23:34;11.20;99.90
23120;DHT22;11729;50.836;4.330;2023-02-12T14:26:10;11.10;99.90
23120;DHT22;11729;50.836;4.330;2023-02-12T14:28:58;11.40;99.90
23120;DHT22;11729;50.836;4.330;2023-02-12T14:31:40;11.60;99.90
23120;DHT22;11729;50.836;4.330;2023-02-12T14:36:44;11.40;99.90
23120;DHT22;11729;50.836;4.330;2023-02-12T14:41:48;11.40;99.90
23120;DHT22;11729;50.836;4.330;2023-02-12T14:46:53;11.20;99.90
23120;DHT22;11729;50.836;4.330;2023-02-12T14:49:27;11.30;99.90
23120;DHT22;11729;50.836;4.330;2023-02-12T14:52:05;11.50;99.90
23120;DHT22;11729;50.836;4.330;2023-02-12T14:54:50;11.50;99.90
23120;DHT22;11729;50.836;4.330;2023-02-12T15:05:46;11.20;99.90
23120;DHT22;11729;50.836;4.330;2023-02-12T15:13:47;10.80;99.90
23120;DHT22;11729;50.836;4.330;2023-02-12T15:21:55;10.60;99.90
23120;DHT22;11729;50.836;4.330;2023-02-12T15:24:24;10.70;99.90
23120;DHT22;11729;50.836;4.330;2023-02-12T15:26:51;10.80;99.90
23120;DHT22;11729;50.836;4.330;2023-02-12T15:29:34;10.90;99.90
23120;DHT22;11729;50.836;4.330;2023-02-12T15:32:06;11.00;99.90
23120;DHT22;11729;50.836;4.330;2023-02-12T15:34:36;11.00;99.90
23120;DHT22;11729;50.836;4.330;2023-02-12T15:37:04;11.10;99.90
23120;DHT22;11729;50.836;4.330;2023-02-12T15:39:43;10.90;99.90
23120;DHT22;11729;50.836;4.330;2023-02-12T15:45:00;10.40;99.90
23120;DHT22;11729;50.836;4.330;2023-02-12T15:47:25;10.40;99.90
23120;DHT22;11729;50.836;4.330;2023-02-12T15:49:58;10.30;99.90
23120;DHT22;11729;50.836;4.330;2023-02-12T15:52:31;10.60;99.90
23120;DHT22;11729;50.836;4.330;2023-02-12T15:55:00;10.70;99.90
23120;DHT22;11729;50.836;4.330;2023-02-12T15:57:26;10.70;99.90
23120;DHT22;11729;50.836;4.330;2023-02-12T15:59:55;10.70;99.90
23120;DHT22;11729;50.836;4.330;2023-02-12T16:02:27;10.80;99.90
23120;DHT22;11729;50.836;4.330;2023-02-12T16:04:57;11.00;99.90
23120;DHT22;11729;50.836;4.330;2023-02-12T16:07:25;11.20;99.90
23120;DHT22;11729;50.836;4.330;2023-02-12T16:09:53;10.90;99.90
23120;DHT22;11729;50.836;4.330;2023-02-12T16:12:23;10.90;99.90
23120;DHT22;11729;50.836;4.330;2023-02-12T16:14:53;11.10;99.90
23120;DHT22;11729;50.836;4.330;2023-02-12T16:19:55;10.70;99.90
23120;DHT22;11729;50.836;4.330;2023-02-12T16:22:36;10.60;99.90
23120;DHT22;11729;50.836;4.330;2023-02-12T16:25:10;10.60;99.90
23120;DHT22;11729;50.836;4.330;2023-02-12T16:27:36;10.50;99.90
23120;DHT22;11729;50.836;4.330;2023-02-12T16:30:22;10.60;99.90
23120;DHT22;11729;50.836;4.330;2023-02-12T16:32:49;10.70;99.90
23120;DHT22;11729;50.836;4.330;2023-02-12T16:40:30;10.40;99.90
23120;DHT22;11729;50.836;4.330;2023-02-12T16:43:01;10.20;99.90
23120;DHT22;11729;50.836;4.330;2023-02-12T16:45:32;10.30;99.90
23120;DHT22;11729;50.836;4.330;2023-02-12T16:50:29;10.60;99.90
23120;DHT22;11729;50.836;4.330;2023-02-12T16:53:26;10.60;99.90
23120;DHT22;11729;50.836;4.330;2023-02-12T16:55:56;10.40;99.90
23120;DHT22;11729;50.836;4.330;2023-02-12T16:58:22;10.50;99.90
23120;DHT22;11729;50.836;4.330;2023-02-12T17:00:51;10.50;99.90
23120;DHT22;11729;50.836;4.330;2023-02-12T17:03:17;10.50;99.90
23120;DHT22;11729;50.836;4.330;2023-02-12T17:05:43;10.40;99.90
23120;DHT22;11729;50.836;4.330;2023-02-12T17:08:16;10.50;99.90
23120;DHT22;11729;50.836;4.330;2023-02-12T17:10:42;10.50;99.90
23120;DHT22;11729;50.836;4.330;2023-02-12T17:13:14;10.60;99.90
23120;DHT22;11729;50.836;4.330;2023-02-12T17:15:48;10.70;99.90
23120;DHT22;11729;50.836;4.330;2023-02-12T17:18:14;10.70;99.90
23120;DHT22;11729;50.836;4.330;2023-02-12T17:20:40;10.80;99.90
23120;DHT22;11729;50.836;4.330;2023-02-12T17:23:06;10.80;99.90
23120;DHT22;11729;50.836;4.330;2023-02-12T17:25:34;10.90;99.90
23120;DHT22;11729;50.836;4.330;2023-02-12T17:28:00;10.90;99.90
23120;DHT22;11729;50.836;4.330;2023-02-12T17:30:26;10.80;99.90
23120;DHT22;11729;50.836;4.330;2023-02-12T17:32:53;10.60;99.90
23120;DHT22;11729;50.836;4.330;2023-02-12T17:35:19;10.30;99.90
23120;DHT22;11729;50.836;4.330;2023-02-12T17:37:45;10.20;99.90
23120;DHT22;11729;50.836;4.330;2023-02-12T17:40:12;10.40;99.90
23120;DHT22;11729;50.836;4.330;2023-02-12T17:42:38;10.40;99.90
23120;DHT22;11729;50.836;4.330;2023-02-12T17:45:04;10.50;99.90
23120;DHT22;11729;50.836;4.330;2023-02-12T17:47:30;10.50;99.90
23120;DHT22;11729;50.836;4.330;2023-02-12T17:49:56;10.60;99.90
23120;DHT22;11729;50.836;4.330;2023-02-12T17:52:22;10.60;99.90
23120;DHT22;11729;50.836;4.330;2023-02-12T17:54:48;10.60;99.90
23120;DHT22;11729;50.836;4.330;2023-02-12T17:57:14;10.60;99.90
23120;DHT22;11729;50.836;4.330;2023-02-12T17:59:40;10.60;99.90
23120;DHT22;11729;50.836;4.330;2023-02-12T18:02:07;10.50;99.90
23120;DHT22;11729;50.836;4.330;2023-02-12T18:04:33;10.70;99.90
23120;DHT22;11729;50.836;4.330;2023-02-12T18:07:03;10.70;99.90
23120;DHT22;11729;50.836;4.330;2023-02-12T18:09:30;10.70;99.90
23120;DHT22;11729;50.836;4.330;2023-02-12T18:11:56;10.60;99.90
23120;DHT22;11729;50.836;4.330;2023-02-12T18:14:21;10.50;99.90
23120;DHT22;11729;50.836;4.330;2023-02-12T18:16:47;10.60;99.90
23120;DHT22;11729;50.836;4.330;2023-02-12T18:19:13;10.60;99.90
23120;DHT22;11729;50.836;4.330;2023-02-12T18:21:39;10.70;99.90
23120;DHT22;11729;50.836;4.330;2023-02-12T18:24:05;10.60;99.90
23120;DHT22;11729;50.836;4.330;2023-02-12T18:26:31;10.20;99.90
23120;DHT22;11729;50.836;4.330;2023-02-12T18:28:57;10.30;99.90
23120;DHT22;11729;50.836;4.330;2023-02-12T18:31:24;10.40;99.90
23120;DHT22;11729;50.836;4.330;2023-02-12T18:33:49;10.30;99.90
23120;DHT22;11729;50.836;4.330;2023-02-12T18:36:17;10.40;99.90
23120;DHT22;11729;50.836;4.330;2023-02-12T18:38:44;10.10;99.90
23120;DHT22;11729;50.836;4.330;2023-02-12T18:41:14;10.10;99.90
23120;DHT22;11729;50.836;4.330;2023-02-12T18:43:40;10.30;99.90
23120;DHT22;11729;50.836;4.330;2023-02-12T18:46:07;10.50;99.90
23120;DHT22;11729;50.836;4.330;2023-02-12T18:48:33;10.50;99.90
23120;DHT22;11729;50.836;4.330;2023-02-12T18:51:03;10.60;99.90
23120;DHT22;11729;50.836;4.330;2023-02-12T18:53:30;10.60;99.90
23120;DHT22;11729;50.836;4.330;2023-02-12T18:55:57;10.60;99.90
23120;DHT22;11729;50.836;4.330;2023-02-12T18:58:23;10.70;99.90
23120;DHT22;11729;50.836;4.330;2023-02-12T19:00:49;10.50;99.90
23120;DHT22;11729;50.836;4.330;2023-02-12T19:03:18;10.40;99.90